createdAt,value
2017-05-31T00:00:19.218Z,17.21
2017-05-31T00:01:28.269Z,17.08
2017-05-31T00:02:37.162Z,17.04
2017-05-31T00:03:46.052Z,17
2017-05-31T00:04:55.273Z,16.94
2017-05-31T00:06:04.491Z,16.94
2017-05-31T00:07:13.680Z,16.91
2017-05-31T00:08:22.573Z,16.93
2017-05-31T00:09:32.121Z,16.93
2017-05-31T00:10:41.334Z,16.86
2017-05-31T00:11:50.631Z,16.88
2017-05-31T00:12:59.823Z,16.79
2017-05-31T00:14:08.712Z,16.85
2017-05-31T00:15:18.252Z,16.76
2017-05-31T00:16:27.163Z,16.76
2017-05-31T00:17:36.711Z,16.7
2017-05-31T00:18:45.653Z,16.75
2017-05-31T00:19:54.867Z,16.75
2017-05-31T00:21:03.762Z,16.66
2017-05-31T00:22:12.649Z,16.71
2017-05-31T00:23:21.542Z,16.64
2017-05-31T00:24:30.606Z,16.71
2017-05-31T00:25:39.499Z,16.7
2017-05-31T00:26:48.389Z,16.76
2017-05-31T00:27:57.606Z,16.81
2017-05-31T00:29:06.494Z,16.79
2017-05-31T00:30:15.533Z,16.83
2017-05-31T00:31:24.431Z,16.73
2017-05-31T00:32:33.646Z,16.79
2017-05-31T00:33:42.860Z,16.82
2017-05-31T00:34:51.750Z,16.76
2017-05-31T00:36:01.069Z,16.78
2017-05-31T00:37:09.959Z,16.89
2017-05-31T00:38:18.852Z,16.76
2017-05-31T00:39:27.741Z,16.82
2017-05-31T00:40:36.633Z,16.76
2017-05-31T00:41:45.852Z,16.71
2017-05-31T00:42:54.747Z,16.73
2017-05-31T00:44:03.637Z,16.88
2017-05-31T00:45:12.851Z,16.68
2017-05-31T00:46:21.743Z,16.75
2017-05-31T00:47:31.139Z,16.67
2017-05-31T00:48:40.351Z,16.7
2017-05-31T00:49:49.564Z,16.68
2017-05-31T00:50:58.460Z,16.6
2017-05-31T00:52:07.677Z,16.63
2017-05-31T00:53:16.719Z,16.7
2017-05-31T00:54:25.615Z,16.46
2017-05-31T00:55:34.503Z,16.48
2017-05-31T00:56:43.391Z,16.42
2017-05-31T00:57:52.279Z,16.5
2017-05-31T00:59:01.326Z,16.46
2017-05-31T01:00:10.221Z,16.38
2017-05-31T01:01:19.433Z,16.46
2017-05-31T01:02:28.656Z,16.42
2017-05-31T01:03:37.551Z,16.42
2017-05-31T01:04:46.763Z,16.42
2017-05-31T01:05:55.668Z,16.38
2017-05-31T01:07:04.890Z,16.31
2017-05-31T01:08:13.784Z,16.33
2017-05-31T01:09:22.675Z,16.34
2017-05-31T01:10:32.198Z,16.27
2017-05-31T01:11:41.414Z,16.38
2017-05-31T01:12:50.302Z,16.33
2017-05-31T01:13:59.190Z,16.34
2017-05-31T01:15:08.083Z,16.35
2017-05-31T01:16:17.124Z,16.38
2017-05-31T01:17:26.017Z,16.28
2017-05-31T01:18:34.912Z,16.33
2017-05-31T01:19:43.804Z,16.34
2017-05-31T01:20:53.020Z,16.34
2017-05-31T01:22:02.165Z,16.46
2017-05-31T01:23:11.708Z,16.5
2017-05-31T01:24:20.598Z,16.5
2017-05-31T01:25:29.816Z,16.5
2017-05-31T01:26:39.033Z,16.53
2017-05-31T01:27:48.073Z,16.45
2017-05-31T01:28:57.286Z,16.5
2017-05-31T01:30:06.184Z,16.5
2017-05-31T01:31:15.079Z,16.64
2017-05-31T01:32:24.294Z,16.52
2017-05-31T01:33:33.514Z,16.6
2017-05-31T01:34:42.724Z,16.46
2017-05-31T01:35:52.588Z,16.49
2017-05-31T01:37:01.482Z,16.53
2017-05-31T01:38:10.373Z,16.58
2017-05-31T01:39:19.261Z,16.57
2017-05-31T01:40:28.152Z,16.56
2017-05-31T01:41:37.050Z,16.5
2017-05-31T01:42:45.936Z,16.45
2017-05-31T01:43:54.825Z,16.45
2017-05-31T01:45:04.344Z,16.48
2017-05-31T01:46:13.232Z,16.42
2017-05-31T01:47:22.125Z,16.46
2017-05-31T01:48:31.347Z,16.57
2017-05-31T01:49:40.238Z,16.45
2017-05-31T01:50:49.331Z,16.49
2017-05-31T01:51:58.224Z,16.66
2017-05-31T01:53:07.119Z,16.63
2017-05-31T01:54:16.006Z,16.5
2017-05-31T01:55:24.892Z,16.61
2017-05-31T01:56:34.498Z,16.61
2017-05-31T01:57:43.389Z,16.49
2017-05-31T01:58:52.607Z,16.45
2017-05-31T02:00:01.565Z,16.46
2017-05-31T02:01:10.777Z,16.43
2017-05-31T02:02:19.665Z,16.39
2017-05-31T02:03:29.207Z,16.31
2017-05-31T02:04:38.095Z,16.24
2017-05-31T02:05:46.984Z,16.25
2017-05-31T02:06:56.199Z,16.39
2017-05-31T02:08:06.542Z,16.12
2017-05-31T02:09:15.431Z,16.24
2017-05-31T02:10:24.319Z,16.15
2017-05-31T02:11:33.215Z,16.24
2017-05-31T02:12:42.435Z,15.96
2017-05-31T02:13:52.272Z,16.09
2017-05-31T02:15:01.161Z,16.01
2017-05-31T02:16:10.702Z,15.97
2017-05-31T02:17:19.915Z,16
2017-05-31T02:18:28.811Z,15.97
2017-05-31T02:19:37.799Z,15.93
2017-05-31T02:20:47.337Z,15.87
2017-05-31T02:21:56.551Z,15.92
2017-05-31T02:23:05.448Z,15.93
2017-05-31T02:24:14.674Z,15.84
2017-05-31T02:25:23.966Z,15.84
2017-05-31T02:26:32.862Z,15.76
2017-05-31T02:27:42.077Z,15.78
2017-05-31T02:28:50.967Z,15.78
2017-05-31T02:29:59.859Z,15.83
2017-05-31T02:31:09.228Z,15.86
2017-05-31T02:32:18.120Z,15.89
2017-05-31T02:33:27.345Z,15.78
2017-05-31T02:34:36.888Z,15.78
2017-05-31T02:35:45.780Z,15.78
2017-05-31T02:36:54.820Z,15.76
2017-05-31T02:38:03.711Z,15.84
2017-05-31T02:39:12.930Z,15.84
2017-05-31T02:40:21.824Z,15.93
2017-05-31T02:41:31.691Z,15.92
2017-05-31T02:42:41.056Z,15.96
2017-05-31T02:43:49.948Z,16
2017-05-31T02:44:58.848Z,15.89
2017-05-31T02:46:08.388Z,15.92
2017-05-31T02:47:17.277Z,15.83
2017-05-31T02:48:26.222Z,15.82
2017-05-31T02:49:35.119Z,15.92
2017-05-31T02:50:44.007Z,16.02
2017-05-31T02:51:52.899Z,15.96
2017-05-31T02:53:02.438Z,15.96
2017-05-31T02:54:12.038Z,15.97
2017-05-31T02:55:20.929Z,16.05
2017-05-31T02:56:30.147Z,15.97
2017-05-31T02:57:39.035Z,15.97
2017-05-31T02:58:47.928Z,16.08
2017-05-31T02:59:56.821Z,16.08
2017-05-31T03:01:05.712Z,15.96
2017-05-31T03:02:14.605Z,15.96
2017-05-31T03:03:23.522Z,15.97
2017-05-31T03:04:32.738Z,16.09
2017-05-31T03:05:41.878Z,16.04
2017-05-31T03:06:51.097Z,15.97
2017-05-31T03:07:59.994Z,15.93
2017-05-31T03:09:09.210Z,16
2017-05-31T03:10:18.100Z,16.01
2017-05-31T03:11:26.992Z,15.94
2017-05-31T03:12:35.885Z,15.97
2017-05-31T03:13:44.773Z,16.01
2017-05-31T03:14:53.664Z,15.84
2017-05-31T03:16:02.889Z,15.84
2017-05-31T03:17:11.932Z,15.84
2017-05-31T03:18:20.825Z,15.74
2017-05-31T03:19:29.714Z,15.82
2017-05-31T03:20:38.607Z,15.87
2017-05-31T03:21:47.504Z,15.82
2017-05-31T03:22:56.391Z,15.78
2017-05-31T03:24:05.281Z,15.74
2017-05-31T03:25:14.509Z,15.68
2017-05-31T03:26:23.720Z,15.83
2017-05-31T03:27:32.609Z,15.74
2017-05-31T03:28:41.654Z,15.67
2017-05-31T03:29:50.870Z,15.75
2017-05-31T03:31:00.122Z,15.67
2017-05-31T03:32:09.340Z,15.74
2017-05-31T03:33:18.224Z,15.67
2017-05-31T03:34:27.186Z,15.65
2017-05-31T03:35:37.053Z,15.64
2017-05-31T03:36:45.946Z,15.53
2017-05-31T03:37:55.484Z,15.68
2017-05-31T03:39:04.380Z,15.56
2017-05-31T03:40:13.425Z,15.53
2017-05-31T03:41:22.322Z,15.5
2017-05-31T03:42:31.224Z,15.53
2017-05-31T03:43:40.111Z,15.54
2017-05-31T03:44:49.323Z,15.53
2017-05-31T03:45:58.215Z,15.53
2017-05-31T03:47:07.435Z,15.54
2017-05-31T03:48:16.337Z,15.54
2017-05-31T03:49:25.547Z,15.54
2017-05-31T03:50:34.437Z,15.5
2017-05-31T03:51:43.578Z,15.56
2017-05-31T03:52:52.471Z,15.5
2017-05-31T03:54:01.368Z,15.56
2017-05-31T03:55:10.267Z,15.53
2017-05-31T03:56:19.805Z,15.47
2017-05-31T03:58:01.331Z,15.39
2017-05-31T03:59:10.219Z,15.56
2017-05-31T04:00:19.115Z,15.53
2017-05-31T04:01:28.333Z,15.51
2017-05-31T04:02:37.283Z,15.51
2017-05-31T04:03:46.173Z,15.36
2017-05-31T04:04:55.389Z,15.47
2017-05-31T04:06:04.351Z,15.41
2017-05-31T04:07:13.239Z,15.44
2017-05-31T04:08:22.929Z,15.41
2017-05-31T04:09:31.830Z,15.49
2017-05-31T04:10:40.745Z,15.51
2017-05-31T04:11:49.959Z,15.36
2017-05-31T04:12:59.171Z,15.49
2017-05-31T04:14:08.366Z,15.49
2017-05-31T04:15:17.581Z,15.57
2017-05-31T04:16:26.472Z,15.64
2017-05-31T04:17:35.706Z,15.64
2017-05-31T04:18:44.932Z,15.59
2017-05-31T04:19:54.122Z,15.59
2017-05-31T04:21:03.014Z,15.64
2017-05-31T04:22:11.905Z,15.68
2017-05-31T04:23:21.121Z,15.82
2017-05-31T04:24:30.011Z,15.72
2017-05-31T04:25:38.970Z,15.64
2017-05-31T04:26:47.860Z,15.75
2017-05-31T04:27:57.074Z,15.78
2017-05-31T04:29:05.964Z,15.69
2017-05-31T04:30:14.857Z,15.71
2017-05-31T04:31:24.223Z,15.65
2017-05-31T04:32:33.437Z,15.68
2017-05-31T04:33:42.323Z,15.75
2017-05-31T04:34:51.546Z,15.65
2017-05-31T04:36:00.436Z,15.8
2017-05-31T04:37:09.432Z,15.72
2017-05-31T04:38:18.646Z,15.84
2017-05-31T04:39:27.871Z,15.82
2017-05-31T04:40:36.780Z,15.9
2017-05-31T04:41:45.666Z,15.76
2017-05-31T04:42:54.774Z,15.93
2017-05-31T04:44:04.316Z,15.83
2017-05-31T04:45:13.204Z,15.83
2017-05-31T04:46:22.093Z,15.97
2017-05-31T04:47:30.988Z,15.9
2017-05-31T04:48:39.928Z,16.01
2017-05-31T04:49:49.140Z,15.97
2017-05-31T04:50:58.039Z,15.97
2017-05-31T04:52:06.928Z,16.05
2017-05-31T04:53:15.815Z,16.01
2017-05-31T04:54:25.181Z,16.02
2017-05-31T04:55:34.074Z,16.01
2017-05-31T04:56:42.961Z,16.05
2017-05-31T04:57:51.850Z,16.09
2017-05-31T04:59:01.067Z,16.07
2017-05-31T05:00:10.440Z,16.14
2017-05-31T05:01:19.981Z,16.14
2017-05-31T05:02:28.880Z,16.35
2017-05-31T05:03:38.094Z,16.21
2017-05-31T05:04:46.986Z,16.31
2017-05-31T05:05:56.138Z,16.33
2017-05-31T05:07:05.032Z,16.63
2017-05-31T05:08:13.922Z,16.43
2017-05-31T05:09:22.820Z,16.39
2017-05-31T05:10:31.719Z,16.52
2017-05-31T05:11:41.088Z,16.58
2017-05-31T05:12:49.981Z,16.63
2017-05-31T05:13:58.873Z,16.49
2017-05-31T05:15:07.770Z,16.57
2017-05-31T05:16:16.680Z,16.61
2017-05-31T05:17:25.724Z,16.57
2017-05-31T05:18:34.947Z,16.57
2017-05-31T05:19:43.844Z,16.52
2017-05-31T05:20:52.763Z,16.58
2017-05-31T05:22:01.662Z,16.7
2017-05-31T05:23:10.883Z,16.57
2017-05-31T05:24:19.794Z,16.71
2017-05-31T05:25:28.690Z,16.73
2017-05-31T05:26:37.590Z,16.46
2017-05-31T05:27:46.488Z,16.52
2017-05-31T05:28:55.381Z,16.5
2017-05-31T05:30:04.273Z,16.42
2017-05-31T05:31:13.169Z,16.53
2017-05-31T05:32:22.390Z,16.57
2017-05-31T05:33:31.345Z,16.56
2017-05-31T05:34:40.240Z,16.66
2017-05-31T05:35:49.133Z,16.7
2017-05-31T05:36:58.029Z,16.71
2017-05-31T05:38:06.923Z,16.68
2017-05-31T05:39:16.145Z,16.75
2017-05-31T05:40:25.136Z,16.71
2017-05-31T05:41:34.034Z,16.68
2017-05-31T05:42:42.928Z,16.75
2017-05-31T05:43:51.820Z,16.67
2017-05-31T05:45:00.714Z,16.73
2017-05-31T05:46:10.081Z,16.75
2017-05-31T05:47:19.301Z,16.7
2017-05-31T05:48:28.195Z,16.76
2017-05-31T05:49:37.090Z,16.67
2017-05-31T05:50:45.992Z,16.71
2017-05-31T05:51:54.986Z,16.75
2017-05-31T05:53:03.881Z,16.83
2017-05-31T05:54:12.775Z,16.78
2017-05-31T05:55:21.668Z,16.85
2017-05-31T05:56:30.588Z,16.89
2017-05-31T05:57:40.109Z,16.91
2017-05-31T05:58:49.004Z,16.97
2017-05-31T05:59:57.901Z,16.83
2017-05-31T06:01:07.126Z,16.88
2017-05-31T06:02:16.023Z,16.88
2017-05-31T06:03:25.569Z,17.04
2017-05-31T06:04:34.787Z,16.98
2017-05-31T06:05:44.012Z,17.12
2017-05-31T06:06:52.910Z,17.08
2017-05-31T06:08:01.804Z,17.01
2017-05-31T06:09:10.846Z,16.83
2017-05-31T06:10:20.071Z,16.94
2017-05-31T06:11:28.967Z,17.03
2017-05-31T06:12:37.862Z,16.94
2017-05-31T06:13:46.763Z,17.06
2017-05-31T06:14:56.283Z,17.06
2017-05-31T06:16:05.179Z,17
2017-05-31T06:17:14.406Z,16.97
2017-05-31T06:18:23.298Z,16.96
2017-05-31T06:19:32.518Z,17.11
2017-05-31T06:20:41.791Z,17.14
2017-05-31T06:21:50.690Z,17.06
2017-05-31T06:22:59.908Z,17.16
2017-05-31T06:24:09.134Z,17.28
2017-05-31T06:25:18.027Z,17.4
2017-05-31T06:26:27.175Z,17.4
2017-05-31T06:27:36.077Z,17.52
2017-05-31T06:28:45.300Z,17.55
2017-05-31T06:29:54.523Z,17.46
2017-05-31T06:31:03.415Z,17.38
2017-05-31T06:32:12.742Z,17.52
2017-05-31T06:33:21.635Z,17.41
2017-05-31T06:34:30.852Z,17.49
2017-05-31T06:35:39.807Z,17.56
2017-05-31T06:36:49.030Z,17.64
2017-05-31T06:37:58.296Z,17.7
2017-05-31T06:39:07.191Z,17.72
2017-05-31T06:40:16.087Z,17.56
2017-05-31T06:41:24.984Z,17.55
2017-05-31T06:42:34.531Z,17.55
2017-05-31T06:43:43.802Z,17.44
2017-05-31T06:44:52.695Z,17.44
2017-05-31T06:46:01.593Z,17.43
2017-05-31T06:47:10.818Z,17.38
2017-05-31T06:48:19.717Z,17.37
2017-05-31T06:49:28.763Z,17.41
2017-05-31T06:50:37.658Z,17.46
2017-05-31T06:51:46.552Z,17.62
2017-05-31T06:52:55.450Z,17.75
2017-05-31T06:54:04.677Z,17.9
2017-05-31T06:55:13.724Z,17.92
2017-05-31T06:56:22.620Z,17.99
2017-05-31T06:57:31.854Z,17.96
2017-05-31T06:58:41.076Z,18.08
2017-05-31T06:59:50.307Z,18
2017-05-31T07:00:59.652Z,17.96
2017-05-31T07:02:08.871Z,17.93
2017-05-31T07:03:17.771Z,17.75
2017-05-31T07:04:27.014Z,17.75
2017-05-31T07:05:36.559Z,17.9
2017-05-31T07:06:45.604Z,17.82
2017-05-31T07:07:54.502Z,17.9
2017-05-31T07:09:03.730Z,17.97
2017-05-31T07:10:12.623Z,18.11
2017-05-31T07:11:21.516Z,18.26
2017-05-31T07:12:30.509Z,18.25
2017-05-31T07:13:39.410Z,18.15
2017-05-31T07:14:48.634Z,18.25
2017-05-31T07:15:57.856Z,18.23
2017-05-31T07:17:06.752Z,18.25
2017-05-31T07:18:15.954Z,18.2
2017-05-31T07:19:25.175Z,18.12
2017-05-31T07:20:34.392Z,18.23
2017-05-31T07:21:43.362Z,18.25
2017-05-31T07:22:52.596Z,18.33
2017-05-31T07:24:01.649Z,18.29
2017-05-31T07:25:10.546Z,18.45
2017-05-31T07:26:19.441Z,18.42
2017-05-31T07:27:28.663Z,18.42
2017-05-31T07:28:37.560Z,18.55
2017-05-31T07:29:46.859Z,18.58
2017-05-31T07:30:55.759Z,18.62
2017-05-31T07:32:05.315Z,18.54
2017-05-31T07:33:14.210Z,18.54
2017-05-31T07:34:23.155Z,18.42
2017-05-31T07:35:32.405Z,18.48
2017-05-31T07:36:41.625Z,18.41
2017-05-31T07:37:50.520Z,18.45
2017-05-31T07:38:59.421Z,18.48
2017-05-31T07:40:08.314Z,18.54
2017-05-31T07:41:17.690Z,18.54
2017-05-31T07:42:26.923Z,18.63
2017-05-31T07:43:35.820Z,18.67
2017-05-31T07:44:44.713Z,18.67
2017-05-31T07:45:53.609Z,18.65
2017-05-31T07:47:03.315Z,18.73
2017-05-31T07:48:12.210Z,18.75
2017-05-31T07:49:21.104Z,18.84
2017-05-31T07:50:30.325Z,18.94
2017-05-31T07:51:39.545Z,18.88
2017-05-31T07:52:48.914Z,18.92
2017-05-31T07:53:57.821Z,18.98
2017-05-31T07:55:07.379Z,18.94
2017-05-31T07:56:16.278Z,19.04
2017-05-31T07:57:25.174Z,18.95
2017-05-31T07:58:34.228Z,18.88
2017-05-31T07:59:43.120Z,18.92
2017-05-31T08:00:52.013Z,18.9
2017-05-31T08:02:01.240Z,18.99
2017-05-31T08:03:10.136Z,19.11
2017-05-31T08:04:19.331Z,18.99
2017-05-31T08:05:28.556Z,18.99
2017-05-31T08:06:37.455Z,18.91
2017-05-31T08:07:46.354Z,18.87
2017-05-31T08:08:55.254Z,18.76
2017-05-31T08:10:04.499Z,18.62
2017-05-31T08:11:13.396Z,18.78
2017-05-31T08:12:22.626Z,18.84
2017-05-31T08:13:31.849Z,18.88
2017-05-31T08:14:41.077Z,18.9
2017-05-31T08:15:50.074Z,19.02
2017-05-31T08:16:58.968Z,19.19
2017-05-31T08:18:08.193Z,19.16
2017-05-31T08:19:17.412Z,19.16
2017-05-31T08:20:26.308Z,19.14
2017-05-31T08:21:35.265Z,19.23
2017-05-31T08:22:44.488Z,19.22
2017-05-31T08:23:53.387Z,19.28
2017-05-31T08:25:02.286Z,19.28
2017-05-31T08:26:11.504Z,19.13
2017-05-31T08:27:20.547Z,19.19
2017-05-31T08:28:29.444Z,19.08
2017-05-31T08:29:38.407Z,19.04
2017-05-31T08:30:47.312Z,18.98
2017-05-31T08:31:56.210Z,19.1
2017-05-31T08:33:05.682Z,19.08
2017-05-31T08:34:14.906Z,18.98
2017-05-31T08:35:23.803Z,18.99
2017-05-31T08:36:32.705Z,19.04
2017-05-31T08:37:41.635Z,19.14
2017-05-31T08:38:51.013Z,19.19
2017-05-31T08:40:00.239Z,19.21
2017-05-31T08:41:09.461Z,19.23
2017-05-31T08:42:18.360Z,19.41
2017-05-31T08:43:27.580Z,19.55
2017-05-31T08:44:36.628Z,19.44
2017-05-31T08:45:45.527Z,19.39
2017-05-31T08:46:54.422Z,19.47
2017-05-31T08:48:03.320Z,19.4
2017-05-31T08:49:12.543Z,19.56
2017-05-31T08:50:21.740Z,19.54
2017-05-31T08:51:30.638Z,19.51
2017-05-31T08:52:39.564Z,19.51
2017-05-31T08:53:48.782Z,19.55
2017-05-31T08:54:57.676Z,19.47
2017-05-31T08:56:07.056Z,19.43
2017-05-31T08:57:16.286Z,19.43
2017-05-31T08:58:25.829Z,19.23
2017-05-31T08:59:34.727Z,19.18
2017-05-31T09:00:44.014Z,19.28
2017-05-31T09:01:53.393Z,19.43
2017-05-31T09:03:02.292Z,19.5
2017-05-31T09:04:11.514Z,19.47
2017-05-31T09:05:20.411Z,19.61
2017-05-31T09:06:29.636Z,19.73
2017-05-31T09:07:38.683Z,19.87
2017-05-31T09:08:47.910Z,19.91
2017-05-31T09:09:56.815Z,19.84
2017-05-31T09:11:06.037Z,19.84
2017-05-31T09:12:14.940Z,19.91
2017-05-31T09:13:23.889Z,19.96
2017-05-31T09:14:32.784Z,19.95
2017-05-31T09:15:42.030Z,19.8
2017-05-31T09:16:50.935Z,19.86
2017-05-31T09:17:59.835Z,19.96
2017-05-31T09:19:09.383Z,19.91
2017-05-31T09:20:18.607Z,19.73
2017-05-31T09:21:27.518Z,19.73
2017-05-31T09:22:36.736Z,19.8
2017-05-31T09:23:45.635Z,19.69
2017-05-31T09:24:54.584Z,19.48
2017-05-31T09:26:03.478Z,19.51
2017-05-31T09:27:12.375Z,19.68
2017-05-31T09:28:21.276Z,19.76
2017-05-31T09:29:30.523Z,19.95
2017-05-31T09:30:39.892Z,20.03
2017-05-31T09:31:48.791Z,19.92
2017-05-31T09:32:58.014Z,19.87
2017-05-31T09:34:06.909Z,19.91
2017-05-31T09:35:16.128Z,19.92
2017-05-31T09:36:25.091Z,19.91
2017-05-31T09:37:34.315Z,19.81
2017-05-31T09:38:43.267Z,19.78
2017-05-31T09:39:52.160Z,19.83
2017-05-31T09:41:01.706Z,19.69
2017-05-31T09:42:10.615Z,19.77
2017-05-31T09:43:19.511Z,19.74
2017-05-31T09:44:28.405Z,19.73
2017-05-31T09:45:37.303Z,19.98
2017-05-31T09:46:46.205Z,19.98
2017-05-31T09:47:55.205Z,20.1
2017-05-31T09:49:04.751Z,20.13
2017-05-31T09:50:13.650Z,20.17
2017-05-31T09:51:22.551Z,20.03
2017-05-31T09:52:31.447Z,20.06
2017-05-31T09:53:40.865Z,20.1
2017-05-31T09:54:49.763Z,20.16
2017-05-31T09:55:58.660Z,20.2
2017-05-31T09:57:07.554Z,20.21
2017-05-31T09:58:16.781Z,20.17
2017-05-31T09:59:25.797Z,20.11
2017-05-31T10:00:35.019Z,19.99
2017-05-31T10:01:43.921Z,20.16
2017-05-31T10:02:53.141Z,20.32
2017-05-31T10:04:02.359Z,20.31
2017-05-31T10:05:11.556Z,20.38
2017-05-31T10:06:20.456Z,20.36
2017-05-31T10:07:29.347Z,20.48
2017-05-31T10:08:38.243Z,20.55
2017-05-31T10:09:47.140Z,20.42
2017-05-31T10:10:56.339Z,20.35
2017-05-31T10:12:05.570Z,20.41
2017-05-31T10:13:14.794Z,20.35
2017-05-31T10:14:23.695Z,20.36
2017-05-31T10:15:32.591Z,20.35
2017-05-31T10:16:41.641Z,20.52
2017-05-31T10:17:51.206Z,20.66
2017-05-31T10:19:00.750Z,20.66
2017-05-31T10:20:10.621Z,20.79
2017-05-31T10:21:19.521Z,20.66
2017-05-31T10:22:28.568Z,20.51
2017-05-31T10:23:37.464Z,20.41
2017-05-31T10:24:46.368Z,20.38
2017-05-31T10:25:55.600Z,20.51
2017-05-31T10:27:04.825Z,20.51
2017-05-31T10:28:14.124Z,20.59
2017-05-31T10:29:23.040Z,20.69
2017-05-31T10:30:31.939Z,20.62
2017-05-31T10:31:40.834Z,20.55
2017-05-31T10:32:49.731Z,20.48
2017-05-31T10:33:58.782Z,20.23
2017-05-31T10:35:07.676Z,20.06
2017-05-31T10:36:16.576Z,20.1
2017-05-31T10:37:25.475Z,20.2
2017-05-31T10:38:34.371Z,20.13
2017-05-31T10:39:43.476Z,20.17
2017-05-31T10:40:52.705Z,20.11
2017-05-31T10:42:01.597Z,20.28
2017-05-31T10:43:10.492Z,20.48
2017-05-31T10:44:19.399Z,20.36
2017-05-31T10:45:28.620Z,20.35
2017-05-31T10:46:37.851Z,20.36
2017-05-31T10:47:46.749Z,20.39
2017-05-31T10:48:55.976Z,20.52
2017-05-31T10:50:04.881Z,20.62
2017-05-31T10:51:14.260Z,20.51
2017-05-31T10:52:23.483Z,20.52
2017-05-31T10:53:32.382Z,20.67
2017-05-31T10:54:41.282Z,20.74
2017-05-31T10:55:50.177Z,20.82
2017-05-31T10:56:59.507Z,20.79
2017-05-31T10:58:08.732Z,20.79
2017-05-31T10:59:17.638Z,20.73
2017-05-31T11:00:27.188Z,20.8
2017-05-31T11:01:36.086Z,20.8
2017-05-31T11:02:45.292Z,20.69
2017-05-31T11:03:54.517Z,20.72
2017-05-31T11:05:04.062Z,20.7
2017-05-31T11:06:13.285Z,20.47
2017-05-31T11:07:22.517Z,20.52
2017-05-31T11:08:31.894Z,20.57
2017-05-31T11:09:40.792Z,20.61
2017-05-31T11:10:49.697Z,20.74
2017-05-31T11:11:58.593Z,20.84
2017-05-31T11:13:07.489Z,20.91
2017-05-31T11:14:16.593Z,20.84
2017-05-31T11:15:25.487Z,20.79
2017-05-31T11:16:34.705Z,20.79
2017-05-31T11:17:43.928Z,20.72
2017-05-31T11:18:52.827Z,20.67
2017-05-31T11:20:02.050Z,20.79
2017-05-31T11:21:11.275Z,20.82
2017-05-31T11:22:20.501Z,20.97
2017-05-31T11:23:29.724Z,20.97
2017-05-31T11:24:38.618Z,20.94
2017-05-31T11:25:47.512Z,20.74
2017-05-31T11:26:56.415Z,20.76
2017-05-31T11:28:05.638Z,20.87
2017-05-31T11:29:14.534Z,20.74
2017-05-31T11:30:23.455Z,20.95
2017-05-31T11:31:32.502Z,21.14
2017-05-31T11:32:41.399Z,21.27
2017-05-31T11:33:50.298Z,21.35
2017-05-31T11:34:59.193Z,21.4
2017-05-31T11:36:08.090Z,21.27
2017-05-31T11:37:17.141Z,21.01
2017-05-31T11:38:26.043Z,20.95
2017-05-31T11:39:35.265Z,20.89
2017-05-31T11:40:44.162Z,20.94
2017-05-31T11:41:53.066Z,21.03
2017-05-31T11:43:02.112Z,21.12
2017-05-31T11:44:11.015Z,21.27
2017-05-31T11:45:19.922Z,21.22
2017-05-31T11:46:28.817Z,21.43
2017-05-31T11:47:37.774Z,21.35
2017-05-31T11:48:47.476Z,21.44
2017-05-31T11:49:56.369Z,21.47
2017-05-31T11:51:05.590Z,21.62
2017-05-31T11:52:14.492Z,21.62
2017-05-31T11:53:23.391Z,21.65
2017-05-31T11:54:32.385Z,21.65
2017-05-31T11:55:41.282Z,21.86
2017-05-31T11:56:50.182Z,21.67
2017-05-31T11:57:59.097Z,21.77
2017-05-31T11:59:08.329Z,21.67
2017-05-31T12:00:17.649Z,21.75
2017-05-31T12:01:26.554Z,21.96
2017-05-31T12:02:35.462Z,22
2017-05-31T12:03:44.374Z,22.25
2017-05-31T12:04:53.276Z,22.3
2017-05-31T12:06:02.240Z,22.42
2017-05-31T12:07:11.479Z,22.03
2017-05-31T12:08:20.383Z,22.06
2017-05-31T12:09:29.283Z,22.21
2017-05-31T12:10:38.185Z,22.21
2017-05-31T12:11:47.192Z,22.18
2017-05-31T12:12:56.094Z,22.45
2017-05-31T12:14:05.001Z,22.58
2017-05-31T12:15:13.909Z,22.52
2017-05-31T12:16:22.824Z,22.64
2017-05-31T12:17:32.954Z,22.47
2017-05-31T12:18:41.862Z,22.49
2017-05-31T12:19:51.514Z,22.54
2017-05-31T12:21:00.426Z,22.62
2017-05-31T12:22:09.330Z,22.42
2017-05-31T12:23:18.336Z,22.64
2017-05-31T12:24:27.578Z,22.61
2017-05-31T12:25:36.491Z,22.79
2017-05-31T12:26:45.404Z,22.82
2017-05-31T12:27:54.310Z,22.94
2017-05-31T12:29:03.213Z,23.07
2017-05-31T12:30:12.118Z,23.12
2017-05-31T12:31:21.030Z,23.23
2017-05-31T12:32:30.590Z,23.48
2017-05-31T12:33:39.821Z,23.66
2017-05-31T12:34:48.879Z,23.54
2017-05-31T12:35:57.790Z,23.65
2017-05-31T12:37:07.026Z,23.6
2017-05-31T12:38:15.936Z,23.46
2017-05-31T12:39:24.854Z,23.36
2017-05-31T12:40:34.394Z,23.09
2017-05-31T12:41:43.625Z,23.47
2017-05-31T12:42:52.543Z,23.7
2017-05-31T12:44:01.513Z,23.68
2017-05-31T12:45:10.758Z,23.58
2017-05-31T12:46:20.290Z,23.55
2017-05-31T12:47:29.205Z,23.65
2017-05-31T12:48:38.440Z,23.87
2017-05-31T12:49:47.354Z,24.35
2017-05-31T12:50:56.598Z,24.18
2017-05-31T12:52:05.719Z,24.15
2017-05-31T12:53:14.625Z,24.18
2017-05-31T12:54:23.593Z,23.91
2017-05-31T12:55:32.501Z,24.02
2017-05-31T12:56:41.417Z,24.21
2017-05-31T12:57:50.674Z,24.08
2017-05-31T12:58:59.644Z,24.18
2017-05-31T13:00:08.881Z,24.37
2017-05-31T13:01:17.802Z,24.03
2017-05-31T13:02:26.710Z,24.08
2017-05-31T13:03:35.726Z,23.98
2017-05-31T13:04:44.636Z,24.08
2017-05-31T13:05:53.550Z,23.88
2017-05-31T13:07:02.466Z,23.79
2017-05-31T13:08:11.380Z,23.69
2017-05-31T13:09:20.442Z,23.9
2017-05-31T13:10:29.368Z,23.97
2017-05-31T13:11:38.600Z,24.08
2017-05-31T13:12:47.833Z,24.06
2017-05-31T13:13:56.739Z,23.98
2017-05-31T13:15:05.799Z,23.88
2017-05-31T13:16:15.037Z,23.63
2017-05-31T13:17:23.950Z,23.8
2017-05-31T13:18:32.866Z,23.78
2017-05-31T13:19:41.778Z,23.73
2017-05-31T13:20:51.169Z,23.98
2017-05-31T13:22:00.422Z,24.16
2017-05-31T13:23:09.676Z,24
2017-05-31T13:24:18.919Z,24.06
2017-05-31T13:25:28.158Z,24.35
2017-05-31T13:26:37.166Z,24.4
2017-05-31T13:27:46.406Z,24.49
2017-05-31T13:28:55.319Z,24.68
2017-05-31T13:30:04.555Z,24.93
2017-05-31T13:31:13.467Z,24.85
2017-05-31T13:32:23.138Z,24.84
2017-05-31T13:33:32.067Z,24.88
2017-05-31T13:34:41.304Z,24.91
2017-05-31T13:35:50.213Z,24.87
2017-05-31T13:36:59.453Z,25.08
2017-05-31T13:38:08.793Z,25.09
2017-05-31T13:39:17.767Z,25.46
2017-05-31T13:40:26.685Z,25.25
2017-05-31T13:41:35.599Z,25.27
2017-05-31T13:42:44.838Z,24.98
2017-05-31T13:43:54.054Z,24.91
2017-05-31T13:45:02.963Z,25.08
2017-05-31T13:46:11.877Z,25.23
2017-05-31T13:47:21.115Z,25.3
2017-05-31T13:48:30.028Z,25.42
2017-05-31T13:49:39.417Z,25.39
2017-05-31T13:50:48.989Z,25.46
2017-05-31T13:51:58.228Z,25.67
2017-05-31T13:53:07.145Z,25.61
2017-05-31T13:54:16.380Z,25.43
2017-05-31T13:55:25.398Z,25.13
2017-05-31T13:56:34.377Z,25.06
2017-05-31T13:57:43.295Z,24.88
2017-05-31T13:58:52.263Z,25.28
2017-05-31T14:00:01.501Z,25.39
2017-05-31T14:01:10.518Z,25.3
2017-05-31T14:02:19.431Z,25.33
2017-05-31T14:03:28.991Z,25.4
2017-05-31T14:04:37.900Z,25.42
2017-05-31T14:05:47.144Z,25.39
2017-05-31T14:06:56.811Z,25.83
2017-05-31T14:08:05.721Z,25.92
2017-05-31T14:09:14.965Z,25.61
2017-05-31T14:10:23.879Z,25.54
2017-05-31T14:11:32.802Z,26.01
2017-05-31T14:12:42.014Z,26.18
2017-05-31T14:13:51.921Z,26.1
2017-05-31T14:15:00.840Z,26.17
2017-05-31T14:16:09.761Z,26.4
2017-05-31T14:17:18.674Z,26.13
2017-05-31T14:18:28.011Z,26.17
2017-05-31T14:19:37.580Z,26.43
2017-05-31T14:20:46.823Z,26.55
2017-05-31T14:21:55.732Z,26.5
2017-05-31T14:23:04.975Z,26.47
2017-05-31T14:24:14.692Z,26.43
2017-05-31T14:25:23.611Z,26.37
2017-05-31T14:26:32.537Z,26.25
2017-05-31T14:27:41.470Z,26.12
2017-05-31T14:28:50.706Z,26.26
2017-05-31T14:30:00.416Z,26.23
2017-05-31T14:31:09.335Z,26.4
2017-05-31T14:32:18.902Z,26.58
2017-05-31T14:33:28.142Z,26.8
2017-05-31T14:34:37.715Z,26.62
2017-05-31T14:35:47.378Z,26.7
2017-05-31T14:36:56.293Z,26.45
2017-05-31T14:38:05.541Z,26.44
2017-05-31T14:39:14.472Z,26.5
2017-05-31T14:40:23.713Z,26.51
2017-05-31T14:41:32.933Z,26.6
2017-05-31T14:42:41.851Z,26.67
2017-05-31T14:43:51.093Z,26.82
2017-05-31T14:45:00.011Z,26.66
2017-05-31T14:46:08.928Z,26.7
2017-05-31T14:47:17.991Z,26.87
2017-05-31T14:48:26.918Z,27.07
2017-05-31T14:49:36.486Z,26.99
2017-05-31T14:50:45.402Z,26.91
2017-05-31T14:51:54.642Z,26.63
2017-05-31T14:53:04.035Z,26.62